Terminal Aerodrome Forecast
Issued by NWS

Home | Current Version | Previous Version | Text Only | Print | Product List | Glossary On
Versions: 1 2 3 4 5 6 7 8 9 10 11 12 13
000
FTUS41 KBTV 261732
TAFSLK
TAF
KSLK 261732Z 2618/2718 09005KT P6SM FEW050 SCT150
     FM262000 13006KT P6SM VCSH SCT050 BKN130
     FM270000 00000KT P6SM VCSH OVC070
     FM270700 00000KT P6SM BKN120
     FM271000 00000KT P6SM SCT100
     FM271400 22006KT P6SM SCT120=

USA.gov is the U.S. government's official web portal to all federal, state and local government web resources and services.